Ozgur Aksoy — 9HA2587 — position and weather

sailwx.info

Track history (hours):
 
Tides and Currents Weather Stations Pressure Air Temp Water Temp Dewpoint Dewpoint Depression Visibility Wind Speed Wind Dir Waves Ship Positions

Ozgur Aksoy

Last reported at 2016-Apr-18 17:32 UTC. Time now 2016-May-29 00:03 UTC.
Position S 30°06' E 031°16'.
Warning: this ship's position is 40 days out of date.

Length 196 m; draft 12.1 m.

Type: Cargo ship. MMSI: 248950000.

Date/timePositionNaut miles runAvg speedWind from/ knotsBaromVisibWave heightAir tempDewpointWater temp
2016-Apr-18 17:32S 30°06' E 031°16'1313.0
2016-Apr-18 16:33S 29°55' E 031°23'1212.4
2016-Apr-18 15:33S 29°45' E 031°32'  
2016-Apr-15 12:33S 28°48' E 032°02'0 0.0
2016-Apr-15 11:33S 28°48' E 032°02'0 0.0
2016-Apr-15 10:33S 28°48' E 032°02'0 0.0
2016-Apr-14 19:21S 28°48' E 032°02'0 0.0
2016-Apr-14 14:21S 28°48' E 032°02'0 0.0
2016-Apr-14 13:27S 28°48' E 032°02'0 0.0
2016-Apr-14 12:33S 28°48' E 032°02'0 0.0
2016-Apr-13 15:18S 28°48' E 032°02'0 0.0
2016-Apr-13 07:06S 28°48' E 032°02'0 0.0
2016-Apr-13 03:13S 28°48' E 032°02'0 0.0
2016-Apr-12 13:14S 28°48' E 032°02'0 0.0
2016-Apr-12 11:33S 28°48' E 032°02'0 0.0
2016-Apr-12 10:33S 28°48' E 032°02'0 0.0
2016-Apr-11 16:33S 28°48' E 032°02'0 0.0
2016-Apr-11 15:22S 28°48' E 032°02'0 0.0
2016-Apr-11 14:32S 28°48' E 032°02'0 0.0
2016-Apr-11 13:33S 28°48' E 032°02'0 0.0
2016-Apr-11 12:33S 28°48' E 032°02'0 0.0
2016-Apr-11 11:33S 28°48' E 032°02'0 0.0
2016-Apr-11 10:33S 28°48' E 032°02'3 1.5
2016-Apr-11 08:27S 28°49' E 032°06'6 6.3
2016-Apr-11 07:33S 28°53' E 032°10'4 2.8
2016-Apr-11 06:09S 28°57' E 032°11'0 0.1
2016-Apr-11 05:32S 28°57' E 032°11'0 0.0
2016-Apr-11 02:33S 28°57' E 032°11'69 5.7
2016-Apr-10 14:20S 28°35' E 033°26'  
Track history (hours):
 
Tides and Currents Weather Stations Pressure Air Temp Water Temp Dewpoint Dewpoint Depression Visibility Wind Speed Wind Dir Waves Ship Positions

Ozgur Aksoy

Last reported at 2016-Apr-18 17:32 UTC. Time now 2016-May-29 00:03 UTC.
Position S 30°06' E 031°16'.
Warning: this ship's position is 40 days out of date.

Length 196 m; draft 12.1 m.

Type: Cargo ship. MMSI: 248950000.

Date/timePositionNaut miles runAvg speedWind from/ knotsBaromVisibWave heightAir tempDewpointWater temp
2016-Apr-18 17:32S 30°06' E 031°16'1313.0
2016-Apr-18 16:33S 29°55' E 031°23'1212.4
2016-Apr-18 15:33S 29°45' E 031°32'  
2016-Apr-15 12:33S 28°48' E 032°02'0 0.0
2016-Apr-15 11:33S 28°48' E 032°02'0 0.0
2016-Apr-15 10:33S 28°48' E 032°02'0 0.0
2016-Apr-14 19:21S 28°48' E 032°02'0 0.0
2016-Apr-14 14:21S 28°48' E 032°02'0 0.0
2016-Apr-14 13:27S 28°48' E 032°02'0 0.0
2016-Apr-14 12:33S 28°48' E 032°02'0 0.0
2016-Apr-13 15:18S 28°48' E 032°02'0 0.0
2016-Apr-13 07:06S 28°48' E 032°02'0 0.0
2016-Apr-13 03:13S 28°48' E 032°02'0 0.0
2016-Apr-12 13:14S 28°48' E 032°02'0 0.0
2016-Apr-12 11:33S 28°48' E 032°02'0 0.0
2016-Apr-12 10:33S 28°48' E 032°02'0 0.0
2016-Apr-11 16:33S 28°48' E 032°02'0 0.0
2016-Apr-11 15:22S 28°48' E 032°02'0 0.0
2016-Apr-11 14:32S 28°48' E 032°02'0 0.0
2016-Apr-11 13:33S 28°48' E 032°02'0 0.0
2016-Apr-11 12:33S 28°48' E 032°02'0 0.0
2016-Apr-11 11:33S 28°48' E 032°02'0 0.0
2016-Apr-11 10:33S 28°48' E 032°02'3 1.5
2016-Apr-11 08:27S 28°49' E 032°06'6 6.3
2016-Apr-11 07:33S 28°53' E 032°10'4 2.8
2016-Apr-11 06:09S 28°57' E 032°11'0 0.1
2016-Apr-11 05:32S 28°57' E 032°11'0 0.0
2016-Apr-11 02:33S 28°57' E 032°11'69 5.7
2016-Apr-10 14:20S 28°35' E 033°26'  

Dump ship's entire track history